Time;durP1;ratioP1;P1;durP2;ratioP2;P2;SDS_P1;SDS_P2;PMS_P1;PMS_P2;Temp;Humidity;BMP_temperature;BMP_pressure;BME280_temperature;BME280_humidity;BME280_pressure;Samples;Min_cycle;Max_cycle;Signal;HPM_P1;HPM_P2
2024/02/07 00:01:39;;;;;;;26.43;4.00;;;;;;;5.42;100.00;98562.84;4982139;28;20520;-78
2024/02/07 00:04:05;;;;;;;19.90;4.57;;;;;;;5.36;100.00;98532.66;4982942;28;20054;-78
2024/02/07 00:06:30;;;;;;;31.67;5.07;;;;;;;5.49;100.00;98551.34;4966530;28;20041;-79
2024/02/07 00:08:56;;;;;;;23.38;6.00;;;;;;;5.35;100.00;98501.88;4966367;28;20118;-78
2024/02/07 00:11:21;;;;;;;29.65;4.90;;;;;;;5.34;100.00;98500.25;4967803;28;20041;-78
2024/02/07 00:13:47;;;;;;;20.83;3.55;;;;;;;5.45;100.00;98502.41;4967122;28;20134;-78
2024/02/07 00:16:12;;;;;;;35.95;7.07;;;;;;;5.39;100.00;98489.94;4966264;28;20042;-78
2024/02/07 00:18:38;;;;;;;27.00;4.07;;;;;;;5.46;100.00;98504.06;4966337;28;20183;-77
2024/02/07 00:21:04;;;;;;;27.30;3.77;;;;;;;5.48;100.00;98528.53;4982264;28;20129;-78
2024/02/07 00:23:29;;;;;;;27.10;4.57;;;;;;;5.33;100.00;98503.88;4949672;28;20045;-77
2024/02/07 00:25:54;;;;;;;17.87;5.37;;;;;;;5.43;100.00;98544.16;4981862;28;20026;-79
2024/02/07 00:28:20;;;;;;;35.60;4.57;;;;;;;5.43;100.00;98509.75;4967532;28;20043;-78
2024/02/07 00:30:45;;;;;;;36.67;5.23;;;;;;;5.43;100.00;98488.56;4949279;28;20035;-79
2024/02/07 00:33:11;;;;;;;30.23;4.38;;;;;;;5.43;100.00;98462.09;4959991;28;20776;-79
2024/02/07 00:35:36;;;;;;;27.05;4.30;;;;;;;5.46;100.00;98476.78;4965873;28;20058;-78
2024/02/07 00:38:01;;;;;;;24.00;4.40;;;;;;;5.52;100.00;98480.50;4982207;28;20035;-79
2024/02/07 00:40:27;;;;;;;30.58;5.85;;;;;;;5.40;100.00;98459.81;4967837;28;20050;-78
2024/02/07 00:42:52;;;;;;;18.75;3.58;;;;;;;5.52;100.00;98452.22;4986639;28;20255;-78
2024/02/07 00:45:18;;;;;;;24.33;3.92;;;;;;;5.61;100.00;98431.75;4961771;28;20023;-78
2024/02/07 00:47:43;;;;;;;29.55;4.97;;;;;;;5.53;100.00;98424.75;4986185;28;20047;-79
2024/02/07 00:50:09;;;;;;;25.10;4.05;;;;;;;5.59;100.00;98428.47;4986119;28;20039;-79
2024/02/07 00:52:34;;;;;;;26.77;3.63;;;;;;;5.52;100.00;98422.28;4986062;28;20034;-79
2024/02/07 00:54:59;;;;;;;24.70;4.20;;;;;;;5.59;100.00;98428.47;4969830;28;20813;-79
2024/02/07 00:57:25;;;;;;;14.53;4.40;;;;;;;5.63;100.00;98411.22;4970586;28;20486;-78
2024/02/07 00:59:50;;;;;;;17.93;3.13;;;;;;;5.53;100.00;98402.78;4978429;28;20086;-78
2024/02/07 01:02:15;;;;;;;31.50;4.27;;;;;;;5.58;100.00;98432.13;4971862;28;20069;-79
2024/02/07 01:04:40;;;;;;;27.30;4.07;;;;;;;5.58;100.00;98395.91;4970654;28;20038;-78
2024/02/07 01:07:07;;;;;;;40.57;5.83;;;;;;;5.64;100.00;98386.38;4969017;28;20278;-79
2024/02/07 01:09:34;;;;;;;29.42;4.60;;;;;;;5.66;100.00;98379.06;4965946;28;20034;-77
2024/02/07 01:12:01;;;;;;;20.75;4.63;;;;;;;5.61;100.00;98365.56;5000777;28;20662;-79
2024/02/07 01:14:26;;;;;;;26.65;4.68;;;;;;;5.61;100.00;98361.09;4970692;28;20553;-79
2024/02/07 01:16:52;;;;;;;31.17;5.55;;;;;;;5.61;100.00;98368.22;4968836;28;20026;-80
2024/02/07 01:19:17;;;;;;;26.70;6.57;;;;;;;5.59;100.00;98365.75;4964154;28;20125;-77
2024/02/07 01:21:42;;;;;;;31.58;5.05;;;;;;;5.72;100.00;98386.25;4970671;28;20097;-76
2024/02/07 01:24:08;;;;;;;32.43;3.77;;;;;;;5.68;100.00;98366.47;4971156;28;20082;-80
2024/02/07 01:26:35;;;;;;;21.17;4.43;;;;;;;5.58;100.00;98321.78;4971245;28;20324;-79
2024/02/07 01:29:00;;;;;;;25.70;4.80;;;;;;;5.65;100.00;98335.88;4971851;28;20171;-79
2024/02/07 01:31:26;;;;;;;28.48;5.53;;;;;;;5.63;100.00;98329.97;4963976;28;20554;-80
2024/02/07 01:33:52;;;;;;;23.58;5.47;;;;;;;5.52;100.00;98364.88;4968168;28;20034;-78
2024/02/07 01:36:17;;;;;;;34.40;7.23;;;;;;;5.59;100.00;98386.94;4969287;28;20041;-76
2024/02/07 01:38:43;;;;;;;24.47;5.50;;;;;;;5.58;100.00;98358.03;4970261;28;20042;-75
2024/02/07 01:41:08;;;;;;;26.27;4.87;;;;;;;5.60;100.00;98348.88;4969755;28;20278;-78
2024/02/07 01:43:33;;;;;;;42.80;7.25;;;;;;;5.53;100.00;98326.00;4977873;28;20101;-78
2024/02/07 01:46:00;;;;;;;29.17;4.18;;;;;;;5.55;100.00;98347.78;4969624;28;20061;-78
2024/02/07 01:48:27;;;;;;;32.20;4.45;;;;;;;5.44;100.00;98328.78;4969474;28;20383;-80
2024/02/07 01:50:54;;;;;;;31.88;4.97;;;;;;;5.44;100.00;98330.59;4969442;28;20135;-77
2024/02/07 01:53:20;;;;;;;26.75;5.32;;;;;;;5.52;100.00;98305.84;4970073;28;20070;-80
2024/02/07 01:55:49;;;;;;;;;;;;;;;5.40;100.00;98223.50;4962222;28;20131;-80
2024/02/07 01:58:15;;;;;;;25.13;4.60;;;;;;;5.44;100.00;98235.34;4989796;28;19925;-80
2024/02/07 02:00:41;;;;;;;25.70;4.43;;;;;;;5.44;100.00;98230.03;4965942;28;20672;-79
2024/02/07 02:03:07;;;;;;;33.63;6.03;;;;;;;5.55;100.00;98218.09;4994312;28;20031;-79
2024/02/07 02:05:32;;;;;;;21.77;5.05;;;;;;;5.48;100.00;98203.00;4985454;28;20398;-76
2024/02/07 02:07:59;;;;;;;23.08;3.65;;;;;;;5.46;100.00;98178.56;4969430;28;20026;-77
2024/02/07 02:10:24;;;;;;;28.95;3.72;;;;;;;5.44;100.00;98193.81;4969372;28;20410;-80
2024/02/07 02:12:50;;;;;;;29.65;4.03;;;;;;;5.50;100.00;98223.97;4969393;28;20030;-80
2024/02/07 02:15:16;;;;;;;33.20;4.38;;;;;;;5.48;100.00;98236.59;4972986;28;20086;-78
2024/02/07 02:17:41;;;;;;;33.08;4.90;;;;;;;5.45;100.00;98327.75;4965605;28;20133;-79
2024/02/07 02:20:09;;;;;;;20.35;3.78;;;;;;;5.35;100.00;98366.94;4970395;28;20034;-77
2024/02/07 02:23:02;;;;;;;33.03;6.47;;;;;;;5.35;100.00;98409.28;4985383;28;20066;-80
2024/02/07 02:25:53;;;;;;;27.58;4.15;;;;;;;5.51;100.00;98469.13;4969052;28;20096;-79
2024/02/07 02:28:52;;;;;;;36.00;6.30;;;;;;;5.38;100.00;98461.00;4955607;28;20043;-79
2024/02/07 02:31:18;;;;;;;35.08;7.25;;;;;;;5.46;100.00;98543.78;4991492;28;20054;-77
2024/02/07 02:33:48;;;;;;;26.20;5.45;;;;;;;5.46;100.00;98599.34;4970458;28;20078;-78
2024/02/07 02:36:15;;;;;;;35.38;5.75;;;;;;;5.32;100.00;98661.03;4961410;28;20073;-79
2024/02/07 02:38:40;;;;;;;32.33;5.47;;;;;;;5.38;100.00;98704.44;4968914;28;20034;-79
2024/02/07 02:41:09;;;;;;;42.13;5.47;;;;;;;5.36;100.00;98702.00;4968700;28;20109;-78
2024/02/07 02:43:37;;;;;;;30.92;5.30;;;;;;;5.37;100.00;98686.94;4968534;28;20034;-77
2024/02/07 02:46:03;;;;;;;33.45;4.88;;;;;;;5.42;100.00;98693.34;4959452;28;20149;-78
2024/02/07 02:48:29;;;;;;;28.05;5.57;;;;;;;5.36;100.00;98699.38;4962786;28;20031;-79
2024/02/07 02:50:55;;;;;;;25.08;4.60;;;;;;;5.20;100.00;98636.00;4964424;28;20041;-78
2024/02/07 02:53:20;;;;;;;33.93;4.93;;;;;;;5.26;100.00;98585.81;4969012;28;20026;-77
2024/02/07 02:55:46;;;;;;;39.30;5.25;;;;;;;5.34;100.00;98532.00;4968360;28;20294;-80
2024/02/07 02:58:12;;;;;;;22.73;4.50;;;;;;;5.24;100.00;98452.06;4968551;28;20034;-77
2024/02/07 03:00:38;;;;;;;31.98;6.57;;;;;;;5.08;100.00;98403.69;4968753;28;20066;-76
2024/02/07 03:03:03;;;;;;;28.20;4.93;;;;;;;5.31;100.00;98421.22;4984906;28;20041;-77
2024/02/07 03:05:45;;;;;;;44.50;6.40;;;;;;;5.28;100.00;98389.84;4984945;28;20045;-78
2024/02/07 03:08:28;;;;;;;37.45;5.07;;;;;;;5.21;100.00;98346.63;4969651;28;20039;-77
2024/02/07 03:10:55;;;;;;;28.63;6.07;;;;;;;5.17;100.00;98318.91;4984435;28;20038;-77
2024/02/07 03:13:20;;;;;;;;;;;;;;;5.13;100.00;98277.97;4985524;28;20550;-76
2024/02/07 03:15:45;;;;;;;26.60;6.05;;;;;;;5.14;100.00;98295.50;4976351;28;19988;-78
2024/02/07 03:18:11;;;;;;;25.20;4.57;;;;;;;5.10;100.00;98283.63;4984349;28;20031;-78
2024/02/07 03:20:36;;;;;;;26.77;5.80;;;;;;;5.10;100.00;98265.13;4969531;28;20038;-78
2024/02/07 03:23:03;;;;;;;27.30;4.70;;;;;;;5.12;100.00;98284.28;4984717;28;20046;-78
2024/02/07 03:25:32;;;;;;;32.47;5.57;;;;;;;5.08;100.00;98268.78;4995250;28;20297;-76
2024/02/07 03:27:58;;;;;;;22.63;4.93;;;;;;;4.97;100.00;98253.41;4968424;28;21054;-76
2024/02/07 03:30:24;;;;;;;26.00;4.05;;;;;;;4.93;100.00;98246.84;4984840;28;20117;-78
2024/02/07 03:32:51;;;;;;;19.42;4.78;;;;;;;5.05;100.00;98277.06;4973067;28;20026;-78
2024/02/07 03:35:17;;;;;;;23.80;4.55;;;;;;;4.89;100.00;98253.50;4990272;28;20034;-77
2024/02/07 03:37:43;;;;;;;;;;;;;;;5.05;100.00;98322.03;4978579;28;20031;-75
2024/02/07 03:40:14;;;;;;;24.00;4.10;;;;;;;5.13;100.00;98299.13;4994769;28;20011;-77
2024/02/07 03:42:41;;;;;;;23.25;4.72;;;;;;;5.08;100.00;98305.81;5011635;28;20038;-77
2024/02/07 03:45:09;;;;;;;35.22;5.15;;;;;;;5.06;100.00;98342.22;4980505;28;20051;-77
2024/02/07 03:47:39;;;;;;;21.40;4.22;;;;;;;4.97;100.00;98413.91;4993990;28;20618;-78
2024/02/07 03:50:12;;;;;;;25.13;5.97;;;;;;;5.00;100.00;98498.97;4968412;28;20049;-75
2024/02/07 03:52:39;;;;;;;20.75;5.60;;;;;;;5.00;100.00;98522.75;5005599;28;20041;-76
2024/02/07 03:55:12;;;;;;;18.10;3.63;;;;;;;4.84;100.00;98544.91;4970668;28;20134;-79
2024/02/07 03:57:42;;;;;;;21.60;3.90;;;;;;;4.85;100.00;98620.59;4998560;28;20050;-77
2024/02/07 04:00:08;;;;;;;19.95;4.50;;;;;;;4.86;100.00;98667.16;4970340;28;20042;-76
2024/02/07 04:02:39;;;;;;;25.45;4.45;;;;;;;4.94;100.00;98748.28;4972070;28;20034;-79
2024/02/07 04:05:07;;;;;;;19.80;3.08;;;;;;;4.85;100.00;98767.84;4971902;28;20494;-77
2024/02/07 04:07:33;;;;;;;24.50;3.78;;;;;;;5.04;100.00;98793.00;4986469;28;20403;-78
2024/02/07 04:09:59;;;;;;;23.35;3.85;;;;;;;4.70;100.00;98773.03;4986626;28;20046;-79
2024/02/07 05:17:19;;;;;;;17.10;3.80;;;;;;;3.63;100.00;97513.09;4967414;28;20125;-77
2024/02/07 05:19:48;;;;;;;20.15;4.00;;;;;;;3.73;100.00;97540.75;4984839;28;20035;-76
2024/02/07 05:22:16;;;;;;;13.73;2.50;;;;;;;3.81;100.00;97558.22;4961533;28;20030;-77
2024/02/07 05:24:43;;;;;;;15.55;2.60;;;;;;;3.79;100.00;97539.97;4961592;28;20049;-77
2024/02/07 05:27:12;;;;;;;24.60;2.92;;;;;;;3.81;100.00;97505.44;4982722;28;20114;-77
2024/02/07 05:29:41;;;;;;;22.02;2.08;;;;;;;3.70;100.00;97493.66;4957533;28;20042;-77
2024/02/07 05:32:07;;;;;;;17.42;2.20;;;;;;;3.72;100.00;97459.97;4963094;28;20043;-78
2024/02/07 05:34:36;;;;;;;;;;;;;;;3.71;100.00;97425.88;4972534;28;20477;-77
2024/02/07 05:37:02;;;;;;;17.08;2.78;;;;;;;3.62;100.00;97438.41;4961657;28;19960;-77
2024/02/07 05:39:33;;;;;;;20.15;3.22;;;;;;;3.67;100.00;97456.28;4990636;28;20424;-77
2024/02/07 05:41:59;;;;;;;15.75;2.00;;;;;;;3.42;100.00;97324.13;4970056;28;20045;-77
2024/02/07 05:44:24;;;;;;;;;;;;;;;3.54;100.00;97310.16;4981653;28;20038;-77
2024/02/07 05:46:50;;;;;;;8.70;2.08;;;;;;;3.59;100.00;97338.59;4972896;28;19913;-77
2024/02/07 05:49:15;;;;;;;14.70;2.40;;;;;;;3.40;100.00;97186.44;4988949;28;20129;-77
2024/02/07 05:51:40;;;;;;;11.30;1.42;;;;;;;3.48;100.00;97223.13;4956601;28;20030;-77
2024/02/07 05:54:07;;;;;;;18.92;3.25;;;;;;;3.48;100.00;97241.59;4972826;28;20254;-77
2024/02/07 05:56:34;;;;;;;20.45;2.70;;;;;;;3.40;100.00;97218.06;4972876;28;20045;-77
2024/02/07 05:58:59;;;;;;;;;;;;;;;3.26;100.00;97178.50;4990798;28;20014;-78
2024/02/07 06:01:26;;;;;;;13.13;3.95;;;;;;;3.34;100.00;97144.00;4970745;28;20433;-77
2024/02/07 06:03:52;;;;;;;18.88;3.45;;;;;;;3.40;100.00;97168.78;4988437;28;20027;-78
2024/02/07 06:06:18;;;;;;;14.38;2.38;;;;;;;3.38;100.00;97192.69;4967541;28;20050;-77
2024/02/07 06:08:47;;;;;;;12.43;2.20;;;;;;;3.31;100.00;97156.81;4970488;28;20030;-77
2024/02/07 06:11:13;;;;;;;14.90;3.30;;;;;;;3.26;100.00;97231.25;4946290;28;20034;-77
2024/02/07 06:13:39;;;;;;;19.45;2.35;;;;;;;3.12;100.00;97124.97;4989714;28;20030;-76
2024/02/07 06:16:05;;;;;;;14.02;2.17;;;;;;;3.17;100.00;97113.81;4972113;28;20026;-77
2024/02/07 06:18:30;;;;;;;18.60;3.33;;;;;;;3.22;100.00;97131.66;4972539;28;20165;-76
2024/02/07 06:20:58;;;;;;;11.15;2.55;;;;;;;3.12;100.00;97145.25;4956220;28;20078;-77
2024/02/07 06:23:23;;;;;;;18.95;3.45;;;;;;;3.10;100.00;97186.81;4990068;28;20489;-77
2024/02/07 06:25:49;;;;;;;10.07;2.30;;;;;;;3.24;100.00;97246.44;4971031;28;20096;-77
2024/02/07 06:28:15;;;;;;;16.27;1.73;;;;;;;3.06;100.00;97138.16;4969841;28;20118;-76
2024/02/07 06:30:40;;;;;;;16.40;2.22;;;;;;;3.24;100.00;97198.19;4989686;28;20397;-77
2024/02/07 06:33:07;;;;;;;12.77;1.92;;;;;;;3.11;100.00;97244.63;4955102;28;20031;-76
2024/02/07 06:35:33;;;;;;;18.98;4.05;;;;;;;3.04;100.00;97245.59;4984564;28;20045;-77
2024/02/07 06:37:58;;;;;;;12.30;2.55;;;;;;;3.17;100.00;97282.53;4969325;28;20034;-76
2024/02/07 06:40:23;;;;;;;13.03;2.00;;;;;;;3.11;100.00;97272.78;4971123;28;20053;-76
2024/02/07 06:42:49;;;;;;;18.90;2.75;;;;;;;3.07;100.00;97304.00;4986607;28;20287;-77
2024/02/07 06:45:16;;;;;;;22.50;3.35;;;;;;;2.91;100.00;97260.38;4969725;28;20512;-77
2024/02/07 06:47:42;;;;;;;18.33;2.95;;;;;;;2.94;100.00;97310.03;4969235;28;20036;-79
2024/02/07 06:50:08;;;;;;;27.38;3.55;;;;;;;2.89;100.00;97285.28;4967227;28;20061;-75
2024/02/07 06:52:33;;;;;;;;;;;;;;;2.98;100.00;97359.72;4964790;28;20049;-76
2024/02/07 06:54:59;;;;;;;18.17;3.13;;;;;;;3.01;100.00;97430.47;4984204;28;20287;-76
2024/02/07 06:57:24;;;;;;;13.88;3.38;;;;;;;2.92;100.00;97427.19;4970486;28;20069;-76
2024/02/07 06:59:49;;;;;;;18.45;3.55;;;;;;;2.89;100.00;97475.81;4971795;28;20058;-76
2024/02/07 07:02:15;;;;;;;10.55;2.15;;;;;;;2.71;100.00;97417.53;4967005;28;20038;-76
2024/02/07 07:04:40;;;;;;;25.33;4.13;;;;;;;2.89;100.00;97467.09;4961274;28;20038;-77
2024/02/07 07:07:06;;;;;;;15.00;3.00;;;;;;;2.90;100.00;97474.84;4960175;28;20117;-76
2024/02/07 07:09:31;;;;;;;12.95;3.42;;;;;;;2.88;100.00;97505.81;4967377;28;20718;-76
2024/02/07 07:11:57;;;;;;;15.68;2.90;;;;;;;2.70;100.00;97415.94;4965789;28;20485;-78
2024/02/07 07:14:22;;;;;;;20.10;3.67;;;;;;;2.91;100.00;97502.00;4984849;28;20034;-77
2024/02/07 07:16:48;;;;;;;30.42;6.03;;;;;;;2.87;100.00;97541.06;4968684;28;20026;-76
2024/02/07 07:19:13;;;;;;;26.15;5.80;;;;;;;3.01;100.00;97580.72;4983880;28;20034;-77
2024/02/07 07:21:38;;;;;;;12.35;2.65;;;;;;;2.92;100.00;97644.06;4963185;28;20053;-75
2024/02/07 07:24:04;;;;;;;17.65;3.35;;;;;;;2.87;100.00;97620.13;4958947;28;20086;-77
2024/02/07 07:26:29;;;;;;;23.45;4.18;;;;;;;2.84;100.00;97595.97;4966940;28;20101;-76
2024/02/07 07:28:57;;;;;;;25.55;2.50;;;;;;;2.96;100.00;97665.59;4963232;28;20026;-77
2024/02/07 07:31:22;;;;;;;17.98;3.13;;;;;;;3.06;100.00;97742.53;4966871;28;20081;-77
2024/02/07 07:33:48;;;;;;;12.95;2.42;;;;;;;3.16;100.00;97787.03;4965805;28;20018;-77
2024/02/07 07:36:17;;;;;;;14.68;2.83;;;;;;;3.16;100.00;97752.75;4980259;28;20166;-77
2024/02/07 07:38:42;;;;;;;16.02;3.35;;;;;;;3.06;100.00;97697.72;4975105;28;20177;-77
2024/02/07 07:41:07;;;;;;;17.95;4.43;;;;;;;2.96;100.00;97756.03;4943921;28;20126;-77
2024/02/07 07:43:34;;;;;;;17.35;3.30;;;;;;;3.11;100.00;97831.59;4985975;28;20494;-76
2024/02/07 07:46:02;;;;;;;20.15;2.53;;;;;;;3.10;100.00;97840.53;4964845;28;20038;-76
2024/02/07 07:48:27;;;;;;;11.35;1.80;;;;;;;3.13;100.00;97869.94;4962651;28;20188;-77
2024/02/07 07:50:54;;;;;;;16.30;3.60;;;;;;;3.33;100.00;97932.66;4984399;28;20125;-78
2024/02/07 07:53:19;;;;;;;21.05;3.47;;;;;;;3.28;100.00;97877.84;4942140;28;20444;-76
2024/02/07 07:55:45;;;;;;;19.33;4.50;;;;;;;3.25;100.00;97822.00;4967827;28;20121;-77
2024/02/07 07:58:13;;;;;;;22.00;2.97;;;;;;;3.37;100.00;97905.75;4985361;28;20022;-77
2024/02/07 08:00:38;;;;;;;11.88;2.47;;;;;;;3.33;100.00;97835.91;4985275;28;20031;-76
2024/02/07 08:03:04;;;;;;;11.27;2.20;;;;;;;3.48;100.00;97811.28;4986057;28;20042;-76
2024/02/07 08:05:29;;;;;;;15.93;3.50;;;;;;;3.49;100.00;97736.41;4966096;28;20293;-77
2024/02/07 08:07:55;;;;;;;18.00;3.42;;;;;;;3.62;100.00;97706.69;4976353;28;20486;-76
2024/02/07 08:10:20;;;;;;;10.50;2.00;;;;;;;3.67;100.00;97652.34;4970374;28;20026;-77
2024/02/07 08:12:45;;;;;;;24.07;2.77;;;;;;;3.85;100.00;97614.06;4970522;28;20285;-77
2024/02/07 08:15:11;;;;;;;16.33;4.72;;;;;;;3.69;100.00;97565.09;4964302;28;20106;-76
2024/02/07 08:17:36;;;;;;;12.43;2.70;;;;;;;3.85;100.00;97426.72;4970597;28;20210;-77
2024/02/07 08:20:02;;;;;;;26.33;3.28;;;;;;;3.83;100.00;97249.28;4969796;28;20026;-78
2024/02/07 08:22:27;;;;;;;15.90;2.05;;;;;;;3.92;100.00;97116.09;4971240;28;20092;-77
2024/02/07 08:24:54;;;;;;;17.02;2.85;;;;;;;4.26;100.00;97164.28;4970620;28;20481;-77
2024/02/07 08:27:20;;;;;;;11.85;1.98;;;;;;;4.82;100.00;97135.34;4969214;28;20024;-76
2024/02/07 08:29:45;;;;;;;16.35;2.72;;;;;;;4.79;100.00;96903.19;4985870;28;20038;-77
2024/02/07 08:32:10;;;;;;;14.03;3.10;;;;;;;4.75;100.00;96830.69;4953675;28;20117;-76
2024/02/07 08:34:36;;;;;;;9.77;2.53;;;;;;;5.17;100.00;96983.31;4987069;28;21211;-76
2024/02/07 08:37:06;;;;;;;14.65;3.88;;;;;;;4.58;100.00;96689.66;4961854;28;20035;-76
2024/02/07 08:39:34;;;;;;;9.13;1.90;;;;;;;4.26;100.00;96704.84;4985721;28;20062;-76
2024/02/07 08:41:59;;;;;;;10.07;1.60;;;;;;;4.26;100.00;96729.44;4985925;28;20084;-76
2024/02/07 08:44:24;;;;;;;8.70;2.30;;;;;;;4.28;100.00;96668.47;4986236;28;20066;-75
2024/02/07 08:46:50;;;;;;;18.17;3.07;;;;;;;4.51;99.95;96758.41;4985833;28;20273;-75
2024/02/07 08:49:19;;;;;;;7.77;2.00;;;;;;;5.49;100.00;97433.78;4986744;28;20089;-75
2024/02/07 08:51:44;;;;;;;9.48;2.38;;;;;;;5.05;98.46;96793.69;4985814;28;20129;-76
2024/02/07 08:54:11;;;;;;;12.57;1.67;;;;;;;6.21;97.67;97060.09;4969411;28;20476;-75
2024/02/07 08:56:36;;;;;;;13.48;2.78;;;;;;;6.24;94.54;96827.34;4985472;28;20791;-76
2024/02/07 08:59:02;;;;;;;11.65;1.55;;;;;;;7.24;92.91;96952.78;4986466;28;20042;-76
2024/02/07 09:01:27;;;;;;;9.88;1.52;;;;;;;6.39;89.46;96521.41;4987053;28;20402;-76
2024/02/07 09:03:52;;;;;;;8.27;1.50;;;;;;;7.45;88.90;96796.63;4986542;28;20089;-77
2024/02/07 09:06:18;;;;;;;9.67;1.97;;;;;;;7.96;88.31;96923.13;4990516;28;20046;-76
2024/02/07 09:08:44;;;;;;;;;;;;;;;7.78;84.07;96442.72;4985336;28;20497;-76
2024/02/07 09:11:09;;;;;;;8.77;1.33;;;;;;;7.59;81.04;96200.75;4966176;28;19921;-76
2024/02/07 09:13:34;;;;;;;16.43;2.10;;;;;;;8.34;81.75;96621.31;4984682;28;20049;-76
2024/02/07 09:16:00;;;;;;;7.23;1.53;;;;;;;9.20;79.95;96665.81;4990517;28;20042;-76
2024/02/07 09:18:25;;;;;;;6.20;1.40;;;;;;;9.18;77.51;96465.69;4967147;28;20977;-77
2024/02/07 09:20:50;;;;;;;11.57;2.28;;;;;;;7.37;74.66;95806.34;4969780;28;20035;-77
2024/02/07 09:23:16;;;;;;;38.77;2.87;;;;;;;7.88;76.93;96396.91;4991348;28;20085;-77
2024/02/07 09:25:41;;;;;;;10.10;1.87;;;;;;;7.26;75.40;96063.84;4971201;28;20753;-77
2024/02/07 09:28:06;;;;;;;6.07;2.03;;;;;;;6.94;75.86;96147.69;4975179;28;20035;-76
2024/02/07 09:30:33;;;;;;;10.10;2.30;;;;;;;7.36;74.67;96207.19;4954406;28;20118;-77
2024/02/07 09:33:00;;;;;;;8.68;1.80;;;;;;;7.46;74.03;96206.47;4970607;28;20023;-76
2024/02/07 09:35:25;;;;;;;6.95;1.70;;;;;;;7.87;73.54;96329.72;4971705;28;20461;-76
2024/02/07 09:37:50;;;;;;;6.10;1.67;;;;;;;8.31;73.34;96475.66;4954335;28;20186;-77
2024/02/07 09:40:19;;;;;;;11.20;2.10;;;;;;;8.19;72.16;96311.09;4969831;28;20043;-77
2024/02/07 09:42:44;;;;;;;13.02;2.17;;;;;;;7.53;72.87;96244.22;4970788;28;20034;-76
2024/02/07 09:45:13;;;;;;;11.70;1.73;;;;;;;7.09;74.15;96356.50;4954183;28;20193;-77
2024/02/07 09:48:17;;;;;;;6.97;1.85;;;;;;;8.08;74.85;96789.41;4971057;28;20101;-76
2024/02/07 09:50:43;;;;;;;9.48;2.05;;;;;;;8.21;75.30;96836.91;4961250;28;20042;-77
2024/02/07 09:53:11;;;;;;;7.13;2.10;;;;;;;8.18;74.81;96793.03;4965687;28;20097;-77
2024/02/07 09:55:36;;;;;;;13.73;3.05;;;;;;;7.24;74.96;96554.84;4954489;28;20045;-76
2024/02/07 09:58:02;;;;;;;10.82;1.75;;;;;;;6.91;75.51;96604.22;4971697;28;20023;-78
2024/02/07 10:00:27;;;;;;;9.95;3.10;;;;;;;6.80;77.05;96781.91;4975287;28;20180;-77
2024/02/07 10:02:53;;;;;;;17.73;2.37;;;;;;;7.28;78.40;97107.84;4956053;28;20034;-76
2024/02/07 10:05:20;;;;;;;11.50;1.70;;;;;;;6.63;78.42;96904.53;4961327;28;20048;-77
2024/02/07 10:07:51;;;;;;;12.35;2.17;;;;;;;6.26;79.59;96957.72;4962009;28;20133;-78
2024/02/07 10:10:17;;;;;;;22.25;4.47;;;;;;;6.78;82.84;97457.38;4981458;28;20072;-77
2024/02/07 10:12:42;;;;;;;31.58;3.67;;;;;;;5.98;81.42;97037.78;4973535;28;20477;-77
2024/02/07 10:15:09;;;;;;;12.50;2.13;;;;;;;6.38;83.72;97457.72;4971101;28;20046;-77
2024/02/07 10:17:34;;;;;;;17.95;1.92;;;;;;;6.33;84.54;97488.31;4980657;28;20121;-76
2024/02/07 10:20:07;;;;;;;17.03;2.47;;;;;;;6.16;85.53;97558.72;4956819;28;20030;-77
2024/02/07 10:22:38;;;;;;;13.45;2.88;;;;;;;6.59;86.85;97778.06;4951019;28;20281;-77
2024/02/07 10:25:09;;;;;;;17.02;1.83;;;;;;;6.67;87.71;97819.44;4961485;28;20445;-76
2024/02/07 10:27:34;;;;;;;12.85;1.80;;;;;;;6.53;88.60;97837.19;4965188;28;20038;-76
2024/02/07 10:30:04;;;;;;;12.03;2.40;;;;;;;6.50;87.68;97718.34;4980677;28;20034;-78
2024/02/07 10:32:29;;;;;;;18.75;2.70;;;;;;;6.20;88.43;97679.13;4966992;28;20041;-76
2024/02/07 10:34:55;;;;;;;10.05;2.10;;;;;;;5.77;89.79;97663.72;4953380;28;20030;-76
2024/02/07 10:37:20;;;;;;;9.88;2.67;;;;;;;5.56;90.05;97687.78;4961778;28;20034;-76
2024/02/07 10:39:46;;;;;;;8.10;2.10;;;;;;;5.82;90.99;97828.06;4959339;28;20030;-77
2024/02/07 10:42:13;;;;;;;13.98;2.22;;;;;;;6.09;92.21;97985.19;4966635;28;20563;-77
2024/02/07 10:44:39;;;;;;;14.20;2.22;;;;;;;6.10;92.24;97954.22;4968809;28;20030;-76
2024/02/07 10:47:08;;;;;;;13.00;1.92;;;;;;;6.17;92.99;98007.22;4995672;23;20411;-74
2024/02/07 10:49:36;;;;;;;10.85;2.75;;;;;;;6.16;94.08;98067.34;5008142;28;20026;-74
2024/02/07 10:52:01;;;;;;;16.10;3.00;;;;;;;5.54;92.64;97774.50;5005965;28;20057;-74
2024/02/07 10:54:27;;;;;;;15.17;2.37;;;;;;;5.82;94.24;98013.41;4991936;28;20056;-74
2024/02/07 10:56:56;;;;;;;13.82;2.47;;;;;;;5.75;95.01;98007.28;5007683;28;20288;-75
2024/02/07 10:59:22;;;;;;;9.02;2.25;;;;;;;5.87;95.88;98100.19;4999996;28;20050;-74
2024/02/07 11:01:49;;;;;;;9.75;2.03;;;;;;;5.59;96.51;98047.31;5002134;28;20050;-74
2024/02/07 11:04:14;;;;;;;11.30;1.85;;;;;;;5.36;97.93;98092.56;4998677;28;20038;-74
2024/02/07 11:06:41;;;;;;;8.95;2.20;;;;;;;5.45;98.39;98145.16;4999235;28;20440;-74
2024/02/07 11:09:09;;;;;;;19.67;2.40;;;;;;;5.82;98.55;98222.59;4999815;28;20042;-74
2024/02/07 11:11:34;;;;;;;13.55;2.42;;;;;;;5.50;97.41;98055.44;4983926;28;20095;-74
2024/02/07 11:14:02;;;;;;;5.95;1.55;;;;;;;5.02;97.14;97891.38;4980625;28;20473;-74
2024/02/07 11:16:28;;;;;;;5.50;2.42;;;;;;;5.20;97.84;98022.28;4995073;28;20514;-74
2024/02/07 11:18:53;;;;;;;13.80;1.85;;;;;;;5.02;98.36;97997.16;4971930;28;20125;-74
2024/02/07 11:21:24;;;;;;;14.88;2.85;;;;;;;5.13;98.32;98010.84;4981794;28;20042;-74
2024/02/07 11:23:52;;;;;;;18.45;2.10;;;;;;;5.34;99.09;98127.19;4997942;28;20396;-74
2024/02/07 11:26:18;;;;;;;7.70;1.42;;;;;;;5.34;99.66;98166.88;4979094;28;20087;-74
2024/02/07 11:28:45;;;;;;;12.02;1.88;;;;;;;4.97;99.17;97996.13;4975732;28;20029;-74
2024/02/07 11:31:11;;;;;;;8.10;1.80;;;;;;;4.91;100.00;98102.63;4993398;28;20026;-76
2024/02/07 11:33:37;;;;;;;9.23;2.03;;;;;;;5.13;100.00;98165.06;5001576;28;20475;-75
2024/02/07 11:36:16;;;;;;;15.02;2.00;;;;;;;5.16;98.96;98063.38;4998966;28;20048;-74
2024/02/07 11:38:53;;;;;;;10.65;1.45;;;;;;;4.90;97.95;97910.66;4995695;28;20859;-74
2024/02/07 11:41:19;;;;;;;20.58;2.58;;;;;;;4.99;99.07;97999.38;5001188;28;20404;-74
2024/02/07 11:43:45;;;;;;;6.20;1.25;;;;;;;4.83;98.13;97900.03;5003659;28;20037;-74
2024/02/07 11:46:12;;;;;;;25.38;2.30;;;;;;;4.67;98.84;97880.03;5005369;28;20033;-75
2024/02/07 11:48:42;;;;;;;10.20;2.33;;;;;;;5.07;100.00;98165.81;4999068;28;20041;-74
2024/02/07 11:51:11;;;;;;;7.20;1.17;;;;;;;4.91;99.81;98037.34;4988692;28;20129;-74
2024/02/07 11:53:41;;;;;;;7.82;2.00;;;;;;;5.16;99.74;98095.09;4963196;28;20507;-74
2024/02/07 11:56:11;;;;;;;6.97;1.52;;;;;;;5.22;99.96;98112.84;4991074;28;20081;-74
2024/02/07 11:58:38;;;;;;;7.03;2.80;;;;;;;5.22;99.33;98070.50;4987336;28;20031;-74
2024/02/07 12:01:07;;;;;;;7.65;1.13;;;;;;;4.68;98.27;97843.81;4993902;28;20654;-74
2024/02/07 12:03:33;;;;;;;8.05;1.95;;;;;;;4.59;98.18;97824.69;5006844;28;20172;-74
2024/02/07 12:05:58;;;;;;;10.47;1.90;;;;;;;5.17;99.48;98110.75;5002925;28;20541;-74
2024/02/07 12:08:25;;;;;;;8.55;1.42;;;;;;;5.37;100.00;98195.59;4988449;28;20293;-74
2024/02/07 12:10:51;;;;;;;5.78;2.28;;;;;;;5.65;99.06;98168.31;5002578;28;20517;-74
2024/02/07 12:13:16;;;;;;;7.32;1.20;;;;;;;5.85;97.39;98068.63;4987327;28;20048;-74
2024/02/07 12:15:42;;;;;;;10.20;3.28;;;;;;;6.02;95.58;97971.13;5001408;28;20121;-75
2024/02/07 12:18:08;;;;;;;3.57;0.97;;;;;;;5.89;93.77;97772.47;4974504;28;20481;-74
2024/02/07 12:20:33;;;;;;;5.93;1.10;;;;;;;6.09;94.38;97899.63;4998529;28;20285;-74
2024/02/07 12:23:00;;;;;;;11.97;1.70;;;;;;;5.40;92.96;97614.94;4994428;28;20088;-74
2024/02/07 12:25:25;;;;;;;12.63;2.45;;;;;;;5.72;94.35;97814.44;5004404;28;20620;-75
2024/02/07 12:27:51;;;;;;;6.55;1.98;;;;;;;5.87;94.45;97907.69;5005137;28;20037;-74
2024/02/07 12:30:16;;;;;;;7.20;1.33;;;;;;;6.08;94.44;97935.06;4972320;28;20572;-74
2024/02/07 12:32:42;;;;;;;10.20;1.98;;;;;;;5.70;93.04;97718.53;5001814;28;20022;-75
2024/02/07 12:35:07;;;;;;;6.47;1.40;;;;;;;5.78;93.03;97739.47;4996672;28;20523;-74